Time;durP1;ratioP1;P1;durP2;ratioP2;P2;SDS_P1;SDS_P2;PMS_P1;PMS_P2;Temp;Humidity;BMP_temperature;BMP_pressure;BME280_temperature;BME280_humidity;BME280_pressure;Samples;Min_cycle;Max_cycle;Signal;HPM_P1;HPM_P2
2022/01/15 00:00:29;;;;;;;17.58;4.80;;;1.50;99.90;;;;;;10340893;28;20151;-59
2022/01/15 00:05:32;;;;;;;19.60;4.88;;;1.40;99.90;;;;;;10346353;28;20096;-60
2022/01/15 00:10:34;;;;;;;15.13;5.05;;;1.40;99.90;;;;;;10341960;28;20054;-59
2022/01/15 00:15:41;;;;;;;21.25;5.88;;;1.40;99.90;;;;;;10340403;28;20172;-59
2022/01/15 00:20:43;;;;;;;22.15;6.72;;;1.50;99.90;;;;;;10332189;28;20103;-60
2022/01/15 00:25:45;;;;;;;17.25;4.32;;;1.40;99.90;;;;;;10339650;28;20069;-59
2022/01/15 00:30:47;;;;;;;21.45;7.30;;;1.40;99.90;;;;;;10344112;28;20064;-61
2022/01/15 00:35:49;;;;;;;25.75;6.07;;;1.40;99.90;;;;;;10342561;28;20081;-60
2022/01/15 00:40:51;;;;;;;25.27;6.45;;;1.50;99.90;;;;;;10342784;28;20065;-59
2022/01/15 00:45:52;;;;;;;28.95;6.55;;;1.50;99.90;;;;;;10342913;28;20139;-59
2022/01/15 00:50:54;;;;;;;25.10;6.80;;;1.60;99.90;;;;;;10340301;28;20068;-60
2022/01/15 00:55:56;;;;;;;28.17;7.18;;;1.60;99.90;;;;;;10339860;28;20054;-59
2022/01/15 01:00:58;;;;;;;39.10;8.82;;;1.60;99.90;;;;;;10340310;28;20135;-60
2022/01/15 01:06:00;;;;;;;36.75;7.45;;;1.60;99.90;;;;;;10344573;28;20050;-60
2022/01/15 01:11:10;;;;;;;35.08;8.10;;;1.60;99.90;;;;;;10346403;28;20104;-60
2022/01/15 01:27:29;;;;;;;31.83;8.48;;;1.70;99.90;;;;;;10305007;28;20077;-59
2022/01/15 01:37:47;;;;;;;26.15;7.25;;;1.70;99.90;;;;;;10352953;28;20100;-60
2022/01/15 01:42:59;;;;;;;27.63;6.78;;;1.80;99.90;;;;;;10350753;28;20049;-60
2022/01/15 01:48:01;;;;;;;24.65;7.25;;;1.80;99.90;;;;;;10346703;28;20077;-60
2022/01/15 01:53:02;;;;;;;31.73;7.13;;;1.80;99.90;;;;;;10345883;28;20110;-60
2022/01/15 01:58:04;;;;;;;28.83;7.07;;;1.90;99.90;;;;;;10344293;28;20070;-60
2022/01/15 02:03:05;;;;;;;31.80;7.07;;;1.90;99.90;;;;;;10350023;28;20189;-61
2022/01/15 02:08:07;;;;;;;37.90;7.10;;;1.80;99.90;;;;;;10345812;28;20069;-60
2022/01/15 02:13:10;;;;;;;31.80;8.00;;;1.90;99.90;;;;;;10344249;28;20127;-60
2022/01/15 02:18:14;;;;;;;28.13;7.90;;;1.90;99.90;;;;;;10350654;28;20053;-61
2022/01/15 02:23:41;;;;;;;33.45;7.68;;;1.90;99.90;;;;;;10344281;28;20074;-59
2022/01/15 02:28:43;;;;;;;35.28;7.75;;;1.90;99.90;;;;;;10347007;28;20042;-60
2022/01/15 02:33:48;;;;;;;29.88;6.88;;;1.90;99.90;;;;;;10341808;28;20084;-60
2022/01/15 02:38:50;;;;;;;28.58;7.40;;;1.90;99.90;;;;;;10348117;28;20084;-60
2022/01/15 02:43:52;;;;;;;27.27;7.85;;;1.90;99.90;;;;;;10347187;28;20439;-59
2022/01/15 02:49:20;;;;;;;27.08;7.07;;;1.90;99.90;;;;;;10344327;28;20500;-60
2022/01/15 02:54:22;;;;;;;33.97;7.05;;;1.90;99.90;;;;;;10343459;28;20672;-60
2022/01/15 02:59:27;;;;;;;37.38;8.05;;;2.00;99.90;;;;;;10344376;28;20070;-59
2022/01/15 03:04:29;;;;;;;29.75;6.97;;;2.00;99.90;;;;;;10344057;28;20053;-60
2022/01/15 03:09:30;;;;;;;32.22;7.30;;;2.00;99.90;;;;;;10344111;28;20073;-61
2022/01/15 03:14:32;;;;;;;33.47;7.70;;;2.00;99.90;;;;;;10347479;28;20804;-62
2022/01/15 03:19:34;;;;;;;35.50;6.53;;;2.00;99.90;;;;;;10343427;28;20045;-61
2022/01/15 03:24:35;;;;;;;30.52;7.72;;;2.10;99.90;;;;;;10341625;28;20105;-59
2022/01/15 03:29:37;;;;;;;30.45;7.97;;;2.10;99.90;;;;;;10353718;28;20069;-60
2022/01/15 03:34:39;;;;;;;31.27;6.55;;;2.10;99.90;;;;;;10338636;28;20101;-60
2022/01/15 03:39:41;;;;;;;30.50;7.03;;;2.10;99.90;;;;;;10352563;28;20058;-59
2022/01/15 03:44:48;;;;;;;36.95;6.65;;;2.20;99.90;;;;;;10348791;28;20049;-60
2022/01/15 03:49:50;;;;;;;26.52;7.25;;;2.20;99.90;;;;;;10343493;28;20078;-62
2022/01/15 03:54:51;;;;;;;24.63;6.40;;;2.20;99.90;;;;;;10343223;28;20786;-60
2022/01/15 03:59:53;;;;;;;30.70;7.43;;;2.20;99.90;;;;;;10340322;28;20139;-60
2022/01/15 04:04:54;;;;;;;28.70;6.75;;;2.20;99.90;;;;;;10341880;28;20077;-60
2022/01/15 04:09:56;;;;;;;26.75;5.32;;;2.20;99.90;;;;;;10341590;28;20049;-60
2022/01/15 04:14:58;;;;;;;24.60;5.97;;;2.20;99.90;;;;;;10340965;28;20563;-60
2022/01/15 04:19:59;;;;;;;30.52;7.32;;;2.20;99.90;;;;;;10345948;28;20053;-60
2022/01/15 04:25:01;;;;;;;23.45;6.20;;;2.20;99.90;;;;;;10339279;28;20042;-60
2022/01/15 04:30:05;;;;;;;28.50;7.25;;;2.20;99.90;;;;;;10344630;28;20477;-60
2022/01/15 04:35:07;;;;;;;27.20;6.63;;;2.20;99.90;;;;;;10340362;28;20049;-60
2022/01/15 04:40:11;;;;;;;21.05;5.43;;;2.20;99.90;;;;;;10343089;28;20074;-59
2022/01/15 04:45:13;;;;;;;23.73;5.35;;;2.20;99.90;;;;;;10338391;28;20077;-60
2022/01/15 04:50:17;;;;;;;21.50;5.28;;;2.20;99.90;;;;;;10343445;28;20068;-59
2022/01/15 04:55:18;;;;;;;18.63;6.75;;;2.20;99.90;;;;;;10339825;28;20073;-60
2022/01/15 05:00:20;;;;;;;18.45;6.32;;;2.20;99.90;;;;;;10341089;28;20152;-60
2022/01/15 05:05:22;;;;;;;21.27;5.82;;;2.20;99.90;;;;;;10346762;28;20528;-62
2022/01/15 05:10:27;;;;;;;20.15;5.47;;;2.20;99.90;;;;;;10345245;28;20046;-60
2022/01/15 05:15:29;;;;;;;19.13;5.30;;;2.30;99.90;;;;;;10345223;28;20054;-60
2022/01/15 05:20:32;;;;;;;27.35;6.22;;;2.30;99.90;;;;;;10337593;28;20058;-60
2022/01/15 05:25:33;;;;;;;25.02;6.53;;;2.30;99.90;;;;;;10337916;28;20137;-60
2022/01/15 05:30:35;;;;;;;18.95;5.38;;;2.30;99.90;;;;;;10343996;28;20073;-60
2022/01/15 05:35:37;;;;;;;30.80;6.35;;;2.30;99.90;;;;;;10338959;28;20046;-62
2022/01/15 05:40:39;;;;;;;32.28;7.18;;;2.30;99.90;;;;;;10336315;28;20141;-61
2022/01/15 05:45:40;;;;;;;24.60;5.25;;;2.30;99.90;;;;;;10342281;28;20100;-60
2022/01/15 05:50:42;;;;;;;22.42;5.47;;;2.30;99.90;;;;;;10339576;28;20136;-60
2022/01/15 05:55:44;;;;;;;24.42;5.82;;;2.20;99.90;;;;;;10341185;28;20109;-60
2022/01/15 06:00:45;;;;;;;27.38;6.18;;;2.30;99.90;;;;;;10337985;28;20119;-60
2022/01/15 06:05:47;;;;;;;21.70;5.18;;;2.20;99.90;;;;;;10344301;28;20062;-60
2022/01/15 06:10:49;;;;;;;27.67;5.60;;;2.20;99.90;;;;;;10338846;28;20072;-60
2022/01/15 06:15:50;;;;;;;25.23;6.50;;;2.10;99.90;;;;;;10344995;28;20082;-60
2022/01/15 06:20:52;;;;;;;29.25;6.35;;;2.20;99.90;;;;;;10342030;28;20066;-60
2022/01/15 06:25:54;;;;;;;24.02;5.53;;;2.20;99.90;;;;;;10347892;28;20131;-61
2022/01/15 06:30:56;;;;;;;25.20;6.13;;;2.30;99.90;;;;;;10352895;28;20045;-60
2022/01/15 06:35:58;;;;;;;20.35;5.03;;;2.20;99.90;;;;;;10347766;28;20164;-60
2022/01/15 06:41:00;;;;;;;25.00;6.13;;;2.30;99.90;;;;;;10348941;28;20561;-62
2022/01/15 06:46:01;;;;;;;22.38;5.50;;;2.20;99.90;;;;;;10340258;28;20053;-61
2022/01/15 06:51:04;;;;;;;25.35;7.55;;;2.20;99.90;;;;;;10346436;28;20060;-60
2022/01/15 06:56:06;;;;;;;28.13;7.60;;;2.20;99.90;;;;;;10348387;28;20046;-61
2022/01/15 07:01:07;;;;;;;21.10;5.28;;;2.20;99.90;;;;;;10344726;28;20081;-60
2022/01/15 07:06:09;;;;;;;19.20;4.95;;;2.30;99.90;;;;;;10342117;28;20112;-60
2022/01/15 07:11:11;;;;;;;18.83;5.82;;;2.30;99.90;;;;;;10345569;28;20073;-61
2022/01/15 07:16:13;;;;;;;17.48;5.22;;;2.30;99.90;;;;;;10347365;28;20046;-62
2022/01/15 07:21:14;;;;;;;23.83;5.15;;;2.30;99.90;;;;;;10340243;28;20081;-62
2022/01/15 07:26:16;;;;;;;16.30;4.18;;;2.30;99.90;;;;;;10340612;28;20069;-62
2022/01/15 07:31:18;;;;;;;12.68;3.75;;;2.30;99.90;;;;;;10344783;28;20474;-63
2022/01/15 07:36:20;;;;;;;12.40;3.45;;;2.40;99.90;;;;;;10340530;28;20423;-62
2022/01/15 07:41:22;;;;;;;15.55;3.97;;;2.50;99.90;;;;;;10343107;28;20073;-62
2022/01/15 07:46:24;;;;;;;15.60;4.05;;;2.50;99.90;;;;;;10341725;28;20135;-64
2022/01/15 07:51:26;;;;;;;9.85;3.20;;;2.50;99.90;;;;;;10340935;28;20412;-63
2022/01/15 07:56:28;;;;;;;13.10;3.03;;;2.50;99.90;;;;;;10338354;28;20092;-62
2022/01/15 08:01:30;;;;;;;11.30;3.67;;;2.60;99.90;;;;;;10337212;28;20108;-64
2022/01/15 08:06:32;;;;;;;9.13;2.50;;;2.60;99.90;;;;;;10342497;28;20155;-63
2022/01/15 08:11:34;;;;;;;11.52;2.45;;;2.70;99.90;;;;;;10335443;28;20448;-61
2022/01/15 08:16:35;;;;;;;10.13;3.63;;;2.70;99.90;;;;;;10339279;28;20049;-61
2022/01/15 08:21:37;;;;;;;5.93;2.67;;;2.70;99.90;;;;;;10342817;28;20105;-61
2022/01/15 08:26:39;;;;;;;5.22;2.42;;;2.70;99.90;;;;;;10340837;28;20041;-61
2022/01/15 08:31:41;;;;;;;7.03;2.63;;;2.80;99.90;;;;;;10336956;28;20074;-61
2022/01/15 08:36:44;;;;;;;7.53;2.45;;;2.80;99.90;;;;;;10332830;28;20077;-61
2022/01/15 08:41:48;;;;;;;7.03;2.17;;;2.90;99.90;;;;;;10343918;28;20100;-61
2022/01/15 08:46:51;;;;;;;7.97;2.47;;;2.80;99.90;;;;;;10341216;28;20082;-62
2022/01/15 08:51:52;;;;;;;5.40;1.80;;;2.90;99.90;;;;;;10341541;28;20065;-61
2022/01/15 08:56:55;;;;;;;7.55;2.85;;;2.90;99.90;;;;;;10341770;28;20046;-61
2022/01/15 09:01:59;;;;;;;4.43;1.77;;;3.00;99.90;;;;;;10345024;28;20050;-61
2022/01/15 09:07:01;;;;;;;9.00;3.25;;;3.00;99.90;;;;;;10339758;28;20042;-61
2022/01/15 09:12:03;;;;;;;7.43;2.95;;;3.00;99.90;;;;;;10340804;28;20554;-61
2022/01/15 09:17:06;;;;;;;9.55;2.22;;;3.10;99.90;;;;;;10346362;28;20045;-61
2022/01/15 09:22:11;;;;;;;7.75;2.58;;;3.20;99.90;;;;;;10342180;28;20095;-62
2022/01/15 09:32:35;;;;;;;5.95;2.42;;;3.20;99.90;;;;;;10339924;28;20473;-62
2022/01/15 09:37:36;;;;;;;5.35;1.98;;;3.30;99.90;;;;;;10339867;28;20088;-62
2022/01/15 09:42:39;;;;;;;6.57;2.83;;;3.20;99.90;;;;;;10344328;28;21602;-63
2022/01/15 09:47:41;;;;;;;5.32;2.47;;;3.30;99.90;;;;;;10336350;28;20545;-62
2022/01/15 09:52:43;;;;;;;6.65;2.20;;;3.30;99.90;;;;;;10347480;28;20069;-62
2022/01/15 09:57:45;;;;;;;4.85;2.13;;;3.40;99.90;;;;;;10347771;28;20112;-62
2022/01/15 10:02:49;;;;;;;5.45;2.00;;;3.40;99.90;;;;;;10350286;28;20104;-62
2022/01/15 10:08:09;;;;;;;4.47;2.05;;;3.40;99.90;;;;;;10347271;28;20148;-62
2022/01/15 10:13:24;;;;;;;7.85;2.40;;;3.50;99.90;;;;;;10346164;28;20070;-62
2022/01/15 10:18:30;;;;;;;5.95;1.77;;;3.50;99.90;;;;;;10345507;28;20062;-62
2022/01/15 10:24:03;;;;;;;5.73;2.40;;;3.50;99.90;;;;;;10346222;28;20125;-62
2022/01/15 10:29:07;;;;;;;4.28;1.85;;;3.60;99.90;;;;;;10346189;28;20073;-63
2022/01/15 10:34:27;;;;;;;4.13;2.13;;;3.70;99.90;;;;;;10339783;28;20050;-62
2022/01/15 10:39:28;;;;;;;4.18;1.52;;;3.80;99.90;;;;;;10353086;28;20057;-63
2022/01/15 10:44:36;;;;;;;5.75;1.77;;;3.80;99.90;;;;;;10348139;28;20115;-63
2022/01/15 10:49:40;;;;;;;4.82;2.38;;;3.80;99.90;;;;;;10340707;28;20180;-63
2022/01/15 10:55:00;;;;;;;4.93;1.88;;;3.80;99.90;;;;;;10341337;28;20038;-62
2022/01/15 11:00:06;;;;;;;3.83;1.42;;;3.70;99.90;;;;;;10345093;28;20049;-63
2022/01/15 11:05:30;;;;;;;4.35;1.90;;;3.70;99.90;;;;;;10347710;28;20078;-62
2022/01/15 11:10:46;;;;;;;5.63;2.40;;;3.70;99.90;;;;;;10342573;28;20053;-62
2022/01/15 11:15:50;;;;;;;4.97;1.50;;;3.70;99.90;;;;;;10347517;28;20122;-62
2022/01/15 11:20:54;;;;;;;4.00;2.33;;;3.70;99.90;;;;;;10343777;28;20073;-62
2022/01/15 11:25:59;;;;;;;6.65;2.15;;;3.70;99.90;;;;;;10343540;28;20127;-63
2022/01/15 11:31:07;;;;;;;2.65;1.23;;;3.80;99.90;;;;;;10342813;28;20073;-63
2022/01/15 11:36:32;;;;;;;4.15;1.70;;;3.80;99.90;;;;;;10341550;28;20135;-62
2022/01/15 11:41:37;;;;;;;5.55;1.83;;;3.80;99.90;;;;;;10339005;28;20166;-63
2022/01/15 11:46:47;;;;;;;5.45;1.67;;;3.60;99.90;;;;;;10342910;28;20107;-63
2022/01/15 11:51:56;;;;;;;4.93;1.83;;;3.70;99.90;;;;;;10346376;28;20145;-60
2022/01/15 11:57:03;;;;;;;4.30;1.55;;;3.70;99.90;;;;;;10345124;28;20069;-60
2022/01/15 12:02:26;;;;;;;2.83;1.57;;;4.00;99.90;;;;;;10340387;28;20050;-61
2022/01/15 12:07:28;;;;;;;3.60;1.45;;;4.00;99.90;;;;;;10337622;28;20133;-60
2022/01/15 12:12:40;;;;;;;4.60;1.67;;;4.10;99.90;;;;;;10346080;28;20092;-59
2022/01/15 12:17:46;;;;;;;5.72;1.77;;;4.10;99.90;;;;;;10342713;28;20058;-59
2022/01/15 12:22:51;;;;;;;5.95;2.45;;;4.00;99.90;;;;;;10346871;28;20112;-59
2022/01/15 12:27:55;;;;;;;4.32;2.00;;;4.00;99.90;;;;;;10339065;28;20046;-59
2022/01/15 12:33:00;;;;;;;5.05;2.22;;;4.00;99.90;;;;;;10349699;28;20046;-60
2022/01/15 12:38:27;;;;;;;5.03;2.35;;;4.00;99.90;;;;;;10343346;28;20053;-60
2022/01/15 12:43:32;;;;;;;5.10;2.00;;;3.90;99.90;;;;;;10341936;28;20049;-59
2022/01/15 12:48:44;;;;;;;5.93;2.15;;;3.90;99.90;;;;;;10344355;28;20046;-60
2022/01/15 12:53:53;;;;;;;4.80;2.30;;;3.90;99.90;;;;;;10345819;28;20103;-61
2022/01/15 12:58:55;;;;;;;6.20;3.28;;;4.00;99.90;;;;;;10343878;28;20107;-60
2022/01/15 13:03:57;;;;;;;6.50;2.45;;;4.00;99.90;;;;;;10341096;28;20054;-65
2022/01/15 13:08:59;;;;;;;5.97;2.78;;;4.00;99.90;;;;;;10344820;28;20085;-63
2022/01/15 13:14:05;;;;;;;6.07;3.15;;;4.00;99.90;;;;;;10344904;28;20073;-63
2022/01/15 13:19:07;;;;;;;6.28;2.40;;;4.00;99.90;;;;;;10342616;28;20049;-63
2022/01/15 13:24:11;;;;;;;7.32;2.80;;;4.00;99.90;;;;;;10342675;28;20109;-62
2022/01/15 13:29:19;;;;;;;8.23;2.92;;;4.00;99.90;;;;;;10336008;28;20055;-62
2022/01/15 13:34:27;;;;;;;9.70;3.45;;;3.90;99.90;;;;;;10351649;28;20736;-63
2022/01/15 13:39:28;;;;;;;8.35;3.35;;;4.00;99.90;;;;;;10354877;28;20095;-64
2022/01/15 13:44:35;;;;;;;7.05;3.42;;;3.90;99.90;;;;;;10347296;28;20432;-63
2022/01/15 13:55:04;;;;;;;9.93;4.68;;;3.90;99.90;;;;;;10351834;28;20100;-65
2022/01/15 14:00:16;;;;;;;8.52;3.97;;;3.90;99.90;;;;;;10353059;28;20053;-63
2022/01/15 14:05:21;;;;;;;12.43;3.20;;;3.90;99.90;;;;;;10352328;28;20111;-63
2022/01/15 14:10:25;;;;;;;7.70;4.28;;;3.90;99.90;;;;;;10352827;28;20092;-63
2022/01/15 14:15:39;;;;;;;11.15;4.43;;;3.90;99.90;;;;;;10348061;28;20057;-63
2022/01/15 14:21:05;;;;;;;7.63;3.45;;;3.90;99.90;;;;;;10346240;28;20096;-63
2022/01/15 14:26:19;;;;;;;7.95;4.38;;;3.90;99.90;;;;;;10350075;28;20547;-63
2022/01/15 14:31:27;;;;;;;13.05;3.97;;;3.90;99.90;;;;;;10346737;28;20057;-62
2022/01/15 14:36:28;;;;;;;8.73;4.10;;;4.00;99.90;;;;;;10350929;28;20050;-63
2022/01/15 14:41:35;;;;;;;8.05;3.75;;;3.90;99.90;;;;;;10346440;28;20132;-64
2022/01/15 14:46:36;;;;;;;9.07;3.88;;;3.90;99.90;;;;;;10346549;28;20078;-63
2022/01/15 14:51:39;;;;;;;7.70;4.10;;;4.00;99.90;;;;;;10355679;28;20104;-63
2022/01/15 14:56:40;;;;;;;8.13;4.63;;;4.00;99.90;;;;;;10347788;28;20083;-63
2022/01/15 15:01:43;;;;;;;6.13;3.00;;;4.00;99.90;;;;;;10351934;28;20053;-63
2022/01/15 15:06:45;;;;;;;8.45;4.18;;;4.00;99.90;;;;;;10343063;28;20471;-63
2022/01/15 15:11:47;;;;;;;5.43;3.20;;;4.00;99.90;;;;;;10343869;28;20053;-63
2022/01/15 15:16:49;;;;;;;5.30;3.25;;;4.00;99.90;;;;;;10344373;28;20087;-63
2022/01/15 15:21:50;;;;;;;5.68;2.63;;;3.90;99.90;;;;;;10341411;28;20053;-63
2022/01/15 15:26:53;;;;;;;4.68;2.60;;;3.90;99.90;;;;;;10349360;28;21484;-63
2022/01/15 15:31:55;;;;;;;3.72;1.73;;;3.90;99.90;;;;;;10334277;28;20078;-63
2022/01/15 15:36:57;;;;;;;3.80;2.22;;;3.90;99.90;;;;;;10339664;28;20108;-63
2022/01/15 15:41:59;;;;;;;3.53;2.25;;;3.90;99.90;;;;;;10350770;28;20135;-63
2022/01/15 15:47:03;;;;;;;5.63;2.90;;;4.00;99.90;;;;;;10339580;28;20046;-62
2022/01/15 15:52:07;;;;;;;3.75;2.67;;;3.90;99.90;;;;;;10341832;28;20132;-63
2022/01/15 15:57:12;;;;;;;6.47;2.67;;;3.80;99.90;;;;;;10341742;28;20093;-61
2022/01/15 16:02:15;;;;;;;6.15;2.85;;;3.80;99.90;;;;;;10342515;28;20085;-61
2022/01/15 16:07:17;;;;;;;5.40;2.85;;;3.80;99.90;;;;;;10339056;28;20121;-61
2022/01/15 16:12:19;;;;;;;4.10;2.50;;;3.80;99.90;;;;;;10341056;28;20388;-61
2022/01/15 16:17:21;;;;;;;5.65;3.55;;;3.80;99.90;;;;;;10347805;28;20046;-61
2022/01/15 16:22:23;;;;;;;6.20;3.17;;;3.70;99.90;;;;;;10337725;28;20081;-61
2022/01/15 16:27:25;;;;;;;4.70;3.03;;;3.70;99.90;;;;;;10340920;28;20128;-60
2022/01/15 16:32:28;;;;;;;11.38;3.67;;;3.70;99.90;;;;;;10339276;28;20073;-61
2022/01/15 16:37:30;;;;;;;6.68;2.88;;;3.60;99.90;;;;;;10344435;28;20061;-61
2022/01/15 16:42:32;;;;;;;6.05;3.30;;;3.60;99.90;;;;;;10337232;28;20046;-61
2022/01/15 16:47:34;;;;;;;6.22;3.05;;;3.60;99.90;;;;;;10337920;28;20073;-61
2022/01/15 16:52:41;;;;;;;6.57;3.22;;;3.60;99.90;;;;;;10339123;28;20065;-62
2022/01/15 16:57:43;;;;;;;6.40;3.03;;;3.50;99.90;;;;;;10335109;28;20131;-61
2022/01/15 17:02:47;;;;;;;6.43;3.42;;;3.50;99.90;;;;;;10343015;28;20051;-60
2022/01/15 17:07:49;;;;;;;6.93;4.28;;;3.50;99.90;;;;;;10342291;28;20522;-62
2022/01/15 17:12:51;;;;;;;5.60;3.25;;;3.60;99.90;;;;;;10337991;28;20057;-61
2022/01/15 17:17:53;;;;;;;9.05;3.72;;;3.50;99.90;;;;;;10344666;28;20053;-61
2022/01/15 17:22:54;;;;;;;8.20;4.28;;;3.40;99.90;;;;;;10338596;28;20077;-61
2022/01/15 17:27:58;;;;;;;6.05;3.78;;;3.50;99.90;;;;;;10337741;28;20049;-61
2022/01/15 17:33:00;;;;;;;7.57;4.28;;;3.30;99.90;;;;;;10347014;28;20104;-61
2022/01/15 17:38:02;;;;;;;9.30;5.22;;;3.40;99.90;;;;;;10339728;28;20120;-61
2022/01/15 17:43:03;;;;;;;7.43;4.57;;;3.40;99.90;;;;;;10344001;28;20096;-60
2022/01/15 17:48:05;;;;;;;7.28;5.22;;;3.40;99.90;;;;;;10345221;28;20123;-60
2022/01/15 17:53:07;;;;;;;9.50;5.25;;;3.50;99.90;;;;;;10339926;28;20096;-60
2022/01/15 17:58:08;;;;;;;8.45;5.15;;;3.40;99.90;;;;;;10342248;28;20046;-61
2022/01/15 18:03:10;;;;;;;10.70;5.97;;;3.40;99.90;;;;;;10345891;28;20061;-61
2022/01/15 18:08:12;;;;;;;8.60;6.03;;;3.50;99.90;;;;;;10337941;28;20113;-60
2022/01/15 18:13:13;;;;;;;8.52;5.30;;;3.50;99.90;;;;;;10340305;28;20112;-61
2022/01/15 18:18:39;;;;;;;9.35;4.63;;;3.50;99.90;;;;;;10343490;28;20030;-61
2022/01/15 18:24:06;;;;;;;9.30;4.38;;;3.50;99.90;;;;;;10347075;28;20461;-60
2022/01/15 18:29:33;;;;;;;9.15;4.32;;;3.40;99.90;;;;;;10344668;28;20054;-60
2022/01/15 18:34:59;;;;;;;6.35;3.35;;;3.40;99.90;;;;;;10347065;28;20033;-60
2022/01/15 18:40:26;;;;;;;8.05;4.30;;;3.10;99.90;;;;;;10349251;28;20477;-61
2022/01/15 18:45:53;;;;;;;8.52;4.75;;;3.20;99.90;;;;;;10342454;28;20120;-60
2022/01/15 18:51:19;;;;;;;14.13;5.73;;;3.10;99.90;;;;;;10350789;28;20054;-60
2022/01/15 18:56:45;;;;;;;9.55;5.45;;;3.30;99.90;;;;;;10343586;28;20042;-60
2022/01/15 19:02:11;;;;;;;10.70;5.82;;;3.20;99.90;;;;;;10335989;28;20034;-60
2022/01/15 19:13:28;;;;;;;13.38;6.93;;;3.20;99.90;;;;;;10303238;28;20049;-60
2022/01/15 19:18:31;;;;;;;12.55;7.45;;;3.20;99.90;;;;;;10341936;28;20046;-61
2022/01/15 19:23:33;;;;;;;12.77;6.60;;;3.30;99.90;;;;;;10347109;28;20540;-59
2022/01/15 19:28:35;;;;;;;14.50;7.82;;;3.30;99.90;;;;;;10348104;28;20112;-59
2022/01/15 19:33:36;;;;;;;19.70;8.95;;;3.40;99.90;;;;;;10344968;28;20077;-60
2022/01/15 19:38:38;;;;;;;17.20;8.63;;;3.40;99.90;;;;;;10343097;28;20128;-60
2022/01/15 19:43:41;;;;;;;17.20;7.35;;;3.40;99.90;;;;;;10340829;28;20046;-60
2022/01/15 19:48:43;;;;;;;15.20;7.57;;;3.40;99.90;;;;;;10352069;28;20543;-62
2022/01/15 19:53:47;;;;;;;14.00;6.72;;;3.30;99.90;;;;;;10341297;28;20688;-61
2022/01/15 19:58:49;;;;;;;15.40;7.75;;;3.30;99.90;;;;;;10352503;28;20049;-60
2022/01/15 20:03:50;;;;;;;21.50;10.30;;;3.30;99.90;;;;;;10343237;28;20100;-61
2022/01/15 20:08:52;;;;;;;14.52;7.03;;;3.30;99.90;;;;;;10344651;28;20120;-61
2022/01/15 20:13:54;;;;;;;15.38;7.75;;;3.30;99.90;;;;;;10343991;28;20104;-61
2022/01/15 20:18:55;;;;;;;13.88;6.53;;;3.30;99.90;;;;;;10345342;28;20045;-61
2022/01/15 20:23:57;;;;;;;17.58;7.38;;;3.20;99.90;;;;;;10348379;28;20108;-61
2022/01/15 20:28:59;;;;;;;18.33;8.15;;;3.30;99.90;;;;;;10340971;28;20143;-61
2022/01/15 20:34:01;;;;;;;14.13;7.47;;;3.30;99.90;;;;;;10339547;28;20124;-61
2022/01/15 20:39:04;;;;;;;15.73;7.68;;;3.30;99.90;;;;;;10342476;28;20068;-61
2022/01/15 20:44:06;;;;;;;15.23;7.65;;;3.30;99.90;;;;;;10345247;28;20111;-62
2022/01/15 20:49:07;;;;;;;20.80;9.20;;;3.30;99.90;;;;;;10341975;28;20057;-61
2022/01/15 20:54:09;;;;;;;14.57;7.13;;;3.30;99.90;;;;;;10344340;28;20074;-61
2022/01/15 20:59:11;;;;;;;17.20;7.78;;;3.30;99.90;;;;;;10342166;28;20046;-61
2022/01/15 21:04:17;;;;;;;16.35;8.93;;;3.30;99.90;;;;;;10336751;28;20654;-61
2022/01/15 21:09:19;;;;;;;17.17;8.27;;;3.30;99.90;;;;;;10342875;28;20100;-61
2022/01/15 21:14:21;;;;;;;18.80;8.73;;;3.30;99.90;;;;;;10339270;28;20073;-61
2022/01/15 21:19:22;;;;;;;16.15;7.72;;;3.30;99.90;;;;;;10342863;28;20567;-61
2022/01/15 21:24:24;;;;;;;16.05;7.72;;;3.30;99.90;;;;;;10343440;28;20119;-61
2022/01/15 21:29:46;;;;;;;16.55;8.00;;;3.30;99.90;;;;;;10336571;28;20058;-61
2022/01/15 21:34:50;;;;;;;17.05;9.02;;;3.30;99.90;;;;;;10341347;28;20125;-62
2022/01/15 21:39:51;;;;;;;18.48;8.52;;;3.40;99.90;;;;;;10339131;28;20100;-61
2022/01/15 21:44:54;;;;;;;15.75;7.70;;;3.40;99.90;;;;;;10340952;28;20197;-61
2022/01/15 21:49:57;;;;;;;17.30;8.20;;;3.30;99.90;;;;;;10343379;28;20059;-61
2022/01/15 21:55:00;;;;;;;21.30;10.02;;;3.30;99.90;;;;;;10346946;28;20088;-61
2022/01/15 22:00:04;;;;;;;16.70;8.80;;;3.20;99.90;;;;;;10349048;28;20045;-62
2022/01/15 22:05:11;;;;;;;14.45;7.78;;;3.30;99.90;;;;;;10345261;28;20165;-61
2022/01/15 22:10:13;;;;;;;20.88;9.93;;;3.20;99.90;;;;;;10348038;28;20046;-61
2022/01/15 22:15:18;;;;;;;17.05;7.57;;;3.20;99.90;;;;;;10349322;28;20045;-61
2022/01/15 22:20:25;;;;;;;15.30;7.82;;;3.10;99.90;;;;;;10350624;28;22096;-62
2022/01/15 22:25:27;;;;;;;18.00;8.60;;;3.20;99.90;;;;;;10348499;28;20135;-62
2022/01/15 22:30:29;;;;;;;16.08;8.35;;;3.10;99.90;;;;;;10346263;28;20140;-62
2022/01/15 22:35:31;;;;;;;15.07;7.88;;;3.20;99.90;;;;;;10347445;28;20054;-61
2022/01/15 22:40:33;;;;;;;19.70;9.23;;;3.20;99.90;;;;;;10346958;28;20073;-61
2022/01/15 22:45:37;;;;;;;18.80;8.50;;;3.20;99.90;;;;;;10352220;28;20515;-61
2022/01/15 22:50:38;;;;;;;21.10;9.65;;;3.10;99.90;;;;;;10346505;28;20530;-61
2022/01/15 22:55:40;;;;;;;17.50;8.23;;;3.10;99.90;;;;;;10351454;28;20386;-61
2022/01/15 23:00:51;;;;;;;18.10;8.18;;;3.10;99.90;;;;;;10347018;28;20072;-61
2022/01/15 23:05:53;;;;;;;20.77;9.50;;;3.00;99.90;;;;;;10342666;28;20057;-62
2022/01/15 23:11:03;;;;;;;19.75;9.45;;;3.10;99.90;;;;;;10344946;28;20141;-61
2022/01/15 23:16:07;;;;;;;19.50;8.65;;;3.10;99.90;;;;;;10347873;28;20054;-62
2022/01/15 23:21:09;;;;;;;33.30;9.85;;;3.00;99.90;;;;;;10346574;28;20128;-61
2022/01/15 23:26:11;;;;;;;32.72;10.77;;;2.90;99.90;;;;;;10341616;28;20147;-62
2022/01/15 23:31:13;;;;;;;25.20;10.02;;;3.00;99.90;;;;;;10345922;28;20112;-61
2022/01/15 23:36:15;;;;;;;26.15;11.40;;;3.00;99.90;;;;;;10352435;28;20072;-60
2022/01/15 23:41:17;;;;;;;24.70;10.48;;;3.10;99.90;;;;;;10343463;28;20081;-61
2022/01/15 23:46:22;;;;;;;24.98;11.63;;;3.00;99.90;;;;;;10342486;28;20069;-62
2022/01/15 23:51:26;;;;;;;26.40;11.77;;;3.00;99.90;;;;;;10344678;28;20048;-61
2022/01/15 23:56:27;;;;;;;26.48;11.10;;;2.90;99.90;;;;;;10350292;28;20566;-61
